createdAt,value
2023-01-29T00:00:09.066Z,-0.02
2023-01-29T00:05:25.752Z,-0.02
2023-01-29T00:10:08.999Z,-0.02
2023-01-29T00:15:08.971Z,-0.02
2023-01-29T00:20:08.980Z,-0.07
2023-01-29T00:25:09.013Z,-0.09
2023-01-29T00:30:09.015Z,-0.12
2023-01-29T00:35:09.049Z,-0.11
2023-01-29T00:40:09.276Z,-0.14
2023-01-29T00:45:08.981Z,-0.14
2023-01-29T00:50:08.967Z,-0.15
2023-01-29T01:15:08.967Z,-0.2
2023-01-29T01:55:08.946Z,-0.27
2023-01-29T02:00:08.988Z,-0.29
2023-01-29T02:05:08.966Z,-0.29
2023-01-29T02:10:08.959Z,-0.29
2023-01-29T02:15:08.950Z,-0.29
2023-01-29T02:20:08.956Z,-0.29
2023-01-29T02:25:08.958Z,-0.29
2023-01-29T02:30:08.982Z,-0.29
2023-01-29T02:35:08.932Z,-0.29
2023-01-29T02:40:08.999Z,-0.29
2023-01-29T02:45:08.945Z,-0.27
2023-01-29T02:50:09.035Z,-0.28
2023-01-29T02:55:08.970Z,-0.27
2023-01-29T03:00:08.965Z,-0.29
2023-01-29T03:05:09.004Z,-0.27
2023-01-29T03:10:08.960Z,-0.29
2023-01-29T03:15:08.969Z,-0.29
2023-01-29T03:20:08.957Z,-0.32
2023-01-29T03:25:08.976Z,-0.32
2023-01-29T03:30:08.972Z,-0.34
2023-01-29T03:35:08.935Z,-0.33
2023-01-29T03:40:08.951Z,-0.31
2023-01-29T03:45:08.917Z,-0.32
2023-01-29T03:50:08.925Z,-0.33
2023-01-29T03:55:08.921Z,-0.33
2023-01-29T04:05:08.975Z,-0.33
2023-01-29T04:10:08.924Z,-0.33
2023-01-29T04:15:08.937Z,-0.38
2023-01-29T04:20:08.943Z,-0.37
2023-01-29T04:25:08.925Z,-0.35
2023-01-29T04:30:08.951Z,-0.34
2023-01-29T04:35:08.922Z,-0.35
2023-01-29T04:40:08.929Z,-0.32
2023-01-29T04:45:08.927Z,-0.29
2023-01-29T04:50:08.923Z,-0.27
2023-01-29T04:55:08.928Z,-0.24
2023-01-29T05:00:08.939Z,-0.26
2023-01-29T05:05:08.940Z,-0.26
2023-01-29T05:10:08.938Z,-0.26
2023-01-29T05:15:08.917Z,-0.28
2023-01-29T05:20:08.917Z,-0.29
2023-01-29T05:25:08.917Z,-0.29
2023-01-29T05:30:08.940Z,-0.29
2023-01-29T05:35:08.894Z,-0.28
2023-01-29T05:40:08.948Z,-0.29
2023-01-29T05:45:08.996Z,-0.29
2023-01-29T05:50:08.936Z,-0.29
2023-01-29T05:55:08.933Z,-0.29
2023-01-29T06:00:08.936Z,-0.29
2023-01-29T06:05:08.892Z,-0.29
2023-01-29T06:10:08.881Z,-0.29
2023-01-29T06:15:08.940Z,-0.32
2023-01-29T06:20:08.917Z,-0.29
2023-01-29T06:25:08.917Z,-0.29
2023-01-29T06:30:08.938Z,-0.29
2023-01-29T06:35:08.879Z,-0.31
2023-01-29T06:40:08.880Z,-0.34
2023-01-29T06:45:08.883Z,-0.33
2023-01-29T06:50:08.911Z,-0.37
2023-01-29T06:55:08.915Z,-0.35
2023-01-29T07:00:08.869Z,-0.37
2023-01-29T07:05:08.903Z,-0.36
2023-01-29T07:10:08.919Z,-0.36
2023-01-29T07:15:08.881Z,-0.35
2023-01-29T07:20:08.880Z,-0.29
2023-01-29T07:25:08.954Z,-0.27
2023-01-29T07:30:08.860Z,-0.28
2023-01-29T07:35:08.861Z,-0.22
2023-01-29T07:40:08.897Z,-0.17
2023-01-29T07:45:08.854Z,-0.02
2023-01-29T07:50:08.877Z,0.12
2023-01-29T07:55:08.856Z,0.2
2023-01-29T08:00:08.906Z,0.27
2023-01-29T08:05:09.005Z,0.3
2023-01-29T08:10:08.936Z,0.45
2023-01-29T08:15:08.887Z,0.59
2023-01-29T08:20:08.942Z,0.67
2023-01-29T08:25:08.955Z,0.8
2023-01-29T08:30:08.887Z,0.83
2023-01-29T08:35:08.858Z,0.98
2023-01-29T08:40:08.844Z,1.04
2023-01-29T08:45:08.842Z,1.13
2023-01-29T08:50:08.860Z,1.26
2023-01-29T08:55:09.010Z,1.32
2023-01-29T09:05:08.886Z,1.31
2023-01-29T09:10:08.869Z,1.3
2023-01-29T09:15:08.872Z,1.4
2023-01-29T09:20:08.843Z,1.38
2023-01-29T09:25:08.815Z,1.26
2023-01-29T09:30:08.985Z,1.37
2023-01-29T09:35:08.848Z,1.4
2023-01-29T09:40:08.828Z,1.5
2023-01-29T09:45:08.832Z,1.52
2023-01-29T09:50:08.864Z,1.4
2023-01-29T09:55:08.838Z,1.4
2023-01-29T10:00:08.819Z,1.4
2023-01-29T10:05:08.851Z,1.4
2023-01-29T10:10:08.845Z,1.56
2023-01-29T10:15:08.809Z,1.7
2023-01-29T10:20:08.813Z,1.78
2023-01-29T10:25:08.830Z,1.78
2023-01-29T10:30:08.837Z,1.89
2023-01-29T10:35:08.836Z,1.92
2023-01-29T10:40:08.867Z,2.08
2023-01-29T10:45:08.811Z,2.15
2023-01-29T10:50:08.793Z,2.08
2023-01-29T10:55:08.790Z,2
2023-01-29T11:00:08.834Z,2.05
2023-01-29T11:05:10.076Z,1.94
2023-01-29T11:10:08.816Z,1.91
2023-01-29T11:15:08.781Z,1.94
2023-01-29T11:20:08.796Z,1.97
2023-01-29T11:25:08.792Z,1.94
2023-01-29T11:30:08.821Z,1.86
2023-01-29T11:35:08.801Z,1.89
2023-01-29T11:40:08.771Z,1.84
2023-01-29T11:45:08.765Z,1.78
2023-01-29T11:50:08.806Z,1.91
2023-01-29T11:55:08.755Z,2.08
2023-01-29T12:00:08.820Z,2.18
2023-01-29T12:05:08.844Z,2.12
2023-01-29T12:10:08.818Z,2.11
2023-01-29T12:15:08.764Z,2.32
2023-01-29T12:20:08.780Z,2.32
2023-01-29T12:25:08.752Z,2.32
2023-01-29T12:30:08.786Z,2.32
2023-01-29T12:35:08.770Z,2.26
2023-01-29T12:40:08.739Z,2.32
2023-01-29T12:45:08.771Z,2.32
2023-01-29T12:50:08.743Z,2.29
2023-01-29T12:55:08.738Z,2.17
2023-01-29T13:00:08.779Z,2.13
2023-01-29T13:05:08.752Z,2.09
2023-01-29T13:10:08.755Z,2.3
2023-01-29T13:15:08.722Z,2.18
2023-01-29T13:20:08.752Z,2.21
2023-01-29T13:25:08.723Z,2.07
2023-01-29T13:30:08.736Z,1.94
2023-01-29T13:35:08.734Z,1.89
2023-01-29T13:40:08.764Z,1.71
2023-01-29T13:45:08.774Z,1.72
2023-01-29T13:50:08.762Z,1.76
2023-01-29T13:55:08.727Z,1.79
2023-01-29T14:00:08.739Z,1.82
2023-01-29T14:05:09.048Z,1.87
2023-01-29T14:10:08.710Z,1.87
2023-01-29T14:15:08.687Z,1.83
2023-01-29T14:20:08.699Z,1.83
2023-01-29T14:25:08.692Z,1.78
2023-01-29T14:30:08.706Z,1.69
2023-01-29T14:35:08.697Z,1.59
2023-01-29T14:40:08.694Z,1.4
2023-01-29T14:45:08.689Z,1.4
2023-01-29T14:50:08.740Z,1.38
2023-01-29T14:55:08.672Z,1.28
2023-01-29T15:00:08.704Z,1.2
2023-01-29T15:05:08.690Z,1.13
2023-01-29T15:10:21.781Z,1.06
2023-01-29T15:15:08.672Z,0.89
2023-01-29T15:20:08.680Z,0.73
2023-01-29T15:25:08.719Z,0.69
2023-01-29T15:35:08.668Z,0.55
2023-01-29T15:40:08.687Z,0.52
2023-01-29T15:45:08.694Z,0.51
2023-01-29T15:50:08.655Z,0.54
2023-01-29T16:00:08.660Z,0.49
2023-01-29T16:15:08.641Z,0.41
2023-01-29T16:35:08.619Z,0.41
2023-01-29T16:45:08.727Z,0.39
2023-01-29T16:50:08.654Z,0.4
2023-01-29T16:55:08.666Z,0.4
2023-01-29T17:00:08.656Z,0.41
2023-01-29T17:05:08.682Z,0.37
2023-01-29T17:10:08.637Z,0.37
2023-01-29T17:15:08.658Z,0.34
2023-01-29T17:20:08.637Z,0.32
2023-01-29T17:25:08.643Z,0.35
2023-01-29T17:30:08.687Z,0.34
2023-01-29T17:35:08.638Z,0.26
2023-01-29T17:40:08.657Z,0.2
2023-01-29T17:45:08.894Z,0.2
2023-01-29T17:50:08.631Z,0.2
2023-01-29T17:55:08.706Z,0.2
2023-01-29T18:00:08.634Z,0.2
2023-01-29T18:05:08.644Z,0.2
2023-01-29T18:10:08.618Z,0.2
2023-01-29T18:15:08.633Z,0.2
2023-01-29T18:20:08.598Z,0.24
2023-01-29T18:25:08.625Z,0.16
2023-01-29T18:30:08.654Z,0.15
2023-01-29T18:35:08.610Z,0.15
2023-01-29T18:40:08.610Z,0.19
2023-01-29T18:45:08.627Z,0.19
2023-01-29T18:50:08.623Z,0.13
2023-01-29T18:55:08.633Z,0.09
2023-01-29T19:00:08.608Z,0.07
2023-01-29T19:05:08.641Z,0.01
2023-01-29T19:10:08.638Z,0
2023-01-29T19:15:08.692Z,-0.02
2023-01-29T19:20:08.632Z,-0.16
2023-01-29T19:25:08.625Z,-0.18
2023-01-29T19:30:08.594Z,-0.2
2023-01-29T19:35:08.636Z,-0.22
2023-01-29T19:40:08.600Z,-0.22
2023-01-29T19:45:08.609Z,-0.2
2023-01-29T19:50:08.626Z,-0.27
2023-01-29T19:55:08.586Z,-0.37
2023-01-29T20:00:08.594Z,-0.47
2023-01-29T20:05:08.667Z,-0.65
2023-01-29T20:10:08.625Z,-0.88
2023-01-29T20:15:08.599Z,-1.05
2023-01-29T20:20:08.591Z,-1.28
2023-01-29T20:25:08.616Z,-1.42
2023-01-29T20:30:08.623Z,-1.61
2023-01-29T20:35:08.600Z,-1.79
2023-01-29T20:40:08.621Z,-1.96
2023-01-29T20:45:08.583Z,-2.1
2023-01-29T20:50:08.655Z,-2.21
2023-01-29T20:55:08.565Z,-2.34
2023-01-29T21:00:08.569Z,-2.42
2023-01-29T21:05:08.604Z,-2.53
2023-01-29T21:10:08.615Z,-2.61
2023-01-29T21:15:08.594Z,-2.63
2023-01-29T21:20:08.567Z,-2.71
2023-01-29T21:25:08.602Z,-2.84
2023-01-29T21:30:08.607Z,-3.01
2023-01-29T21:35:08.571Z,-3.11
2023-01-29T21:40:08.575Z,-3.22
2023-01-29T21:50:08.579Z,-3.44
2023-01-29T21:55:08.600Z,-3.57
2023-01-29T22:00:08.572Z,-3.66
2023-01-29T22:05:18.565Z,-3.71
2023-01-29T22:10:08.584Z,-3.81
2023-01-29T22:15:08.568Z,-3.9
2023-01-29T22:20:08.593Z,-3.68
2023-01-29T22:25:08.573Z,-3.45
2023-01-29T22:30:08.579Z,-3.55
2023-01-29T22:35:08.698Z,-3.59
2023-01-29T22:40:08.571Z,-3.66
2023-01-29T22:45:08.570Z,-3.71
2023-01-29T22:50:08.576Z,-3.76
2023-01-29T22:55:08.616Z,-3.78
2023-01-29T23:00:08.874Z,-3.81
2023-01-29T23:05:08.623Z,-3.85
2023-01-29T23:10:08.587Z,-3.9
2023-01-29T23:15:08.564Z,-3.91
2023-01-29T23:20:08.614Z,-3.98
2023-01-29T23:25:08.605Z,-4
2023-01-29T23:30:08.616Z,-3.99
2023-01-29T23:35:08.575Z,-3.98
2023-01-29T23:40:08.585Z,-3.93
2023-01-29T23:45:08.584Z,-3.93
2023-01-29T23:50:08.588Z,-3.9
2023-01-29T23:55:08.635Z,-3.88
